createdAt,value
2023-01-22T00:02:44.817Z,0.23
2023-01-22T00:05:47.682Z,0.23
2023-01-22T00:08:51.216Z,0.23
2023-01-22T00:11:54.218Z,0.23
2023-01-22T00:14:57.062Z,0.23
2023-01-22T00:17:59.977Z,0.23
2023-01-22T00:21:02.790Z,0.24
2023-01-22T00:24:05.924Z,0.23
2023-01-22T00:27:08.852Z,0.25
2023-01-22T00:30:12.171Z,0.26
2023-01-22T00:33:14.990Z,0.27
2023-01-22T00:36:20.115Z,0.28
2023-01-22T00:39:23.229Z,0.30
2023-01-22T00:42:26.399Z,0.29
2023-01-22T00:45:29.281Z,0.30
2023-01-22T00:48:32.582Z,0.31
2023-01-22T00:51:36.974Z,0.32
2023-01-22T00:54:39.888Z,0.32
2023-01-22T00:57:42.630Z,0.31
2023-01-22T01:00:45.640Z,0.30
2023-01-22T01:03:48.575Z,0.32
2023-01-22T01:06:51.467Z,0.33
2023-01-22T01:09:54.231Z,0.32
2023-01-22T01:12:57.126Z,0.35
2023-01-22T01:16:05.511Z,0.35
2023-01-22T01:19:12.520Z,0.32
2023-01-22T01:22:15.290Z,0.33
2023-01-22T01:25:18.351Z,0.34
2023-01-22T01:28:21.279Z,0.34
2023-01-22T01:31:26.534Z,0.36
2023-01-22T01:34:29.383Z,0.36
2023-01-22T01:37:32.214Z,0.36
2023-01-22T01:40:35.773Z,0.36
2023-01-22T01:43:38.963Z,0.37
2023-01-22T01:46:48.929Z,0.37
2023-01-22T01:49:53.254Z,0.38
2023-01-22T01:52:57.254Z,0.39
2023-01-22T01:56:01.779Z,0.38
2023-01-22T01:59:06.733Z,0.38
2023-01-22T02:02:09.734Z,0.38
2023-01-22T02:05:12.611Z,0.37
2023-01-22T02:08:15.595Z,0.38
2023-01-22T02:11:19.505Z,0.38
2023-01-22T02:14:27.722Z,0.39
2023-01-22T02:17:30.595Z,0.36
2023-01-22T02:20:36.784Z,0.38
2023-01-22T02:23:39.670Z,0.37
2023-01-22T02:26:44.230Z,0.38
2023-01-22T02:29:47.200Z,0.37
2023-01-22T02:32:50.021Z,0.37
2023-01-22T02:35:52.844Z,0.38
2023-01-22T02:38:55.891Z,0.42
2023-01-22T02:41:58.957Z,0.39
2023-01-22T02:45:05.306Z,0.40
2023-01-22T02:48:08.161Z,0.40
2023-01-22T02:51:11.285Z,0.38
2023-01-22T02:54:14.081Z,0.32
2023-01-22T02:57:16.914Z,0.25
2023-01-22T03:00:20.898Z,0.21
2023-01-22T03:03:23.931Z,0.17
2023-01-22T03:06:29.093Z,0.14
2023-01-22T03:09:31.972Z,0.13
2023-01-22T03:12:53.099Z,0.12
2023-01-22T03:16:15.099Z,0.09
2023-01-22T03:19:37.438Z,0.07
2023-01-22T03:22:40.659Z,0.02
2023-01-22T03:25:43.490Z,0.02
2023-01-22T03:28:46.453Z,-0.01
2023-01-22T03:31:49.529Z,-0.04
2023-01-22T03:34:54.068Z,-0.04
2023-01-22T03:37:57.257Z,-0.06
2023-01-22T03:41:09.253Z,-0.07
2023-01-22T03:44:14.404Z,-0.08
2023-01-22T03:47:18.067Z,-0.08
2023-01-22T03:50:20.986Z,-0.11
2023-01-22T03:53:23.818Z,-0.13
2023-01-22T03:56:27.377Z,-0.14
2023-01-22T03:59:31.066Z,-0.15
2023-01-22T04:02:34.366Z,-0.16
2023-01-22T04:05:37.266Z,-0.20
2023-01-22T04:08:42.663Z,-0.24
2023-01-22T04:11:45.483Z,-0.26
2023-01-22T04:14:48.398Z,-0.27
2023-01-22T04:17:51.281Z,-0.28
2023-01-22T04:20:54.492Z,-0.28
2023-01-22T04:23:59.243Z,-0.32
2023-01-22T04:27:02.172Z,-0.33
2023-01-22T04:30:06.687Z,-0.31
2023-01-22T04:33:13.128Z,-0.34
2023-01-22T04:36:16.027Z,-0.34
2023-01-22T04:39:19.053Z,-0.36
2023-01-22T04:42:22.365Z,-0.36
2023-01-22T04:45:25.196Z,-0.37
2023-01-22T04:48:29.101Z,-0.40
2023-01-22T04:51:32.220Z,-0.38
2023-01-22T04:54:35.018Z,-0.39
2023-01-22T04:57:38.628Z,-0.41
2023-01-22T05:00:43.355Z,-0.39
2023-01-22T05:03:46.246Z,-0.39
2023-01-22T05:06:49.735Z,-0.40
2023-01-22T05:09:52.582Z,-0.38
2023-01-22T05:12:57.673Z,-0.39
2023-01-22T05:16:00.920Z,-0.39
2023-01-22T05:19:04.561Z,-0.37
2023-01-22T05:22:07.572Z,-0.37
2023-01-22T05:25:10.795Z,-0.38
2023-01-22T05:28:13.617Z,-0.37
2023-01-22T05:31:17.055Z,-0.39
2023-01-22T05:34:20.592Z,-0.37
2023-01-22T05:37:26.714Z,-0.38
2023-01-22T05:40:30.125Z,-0.37
2023-01-22T05:43:33.012Z,-0.36
2023-01-22T05:46:39.278Z,-0.37
2023-01-22T05:49:43.274Z,-0.37
2023-01-22T05:52:46.204Z,-0.38
2023-01-22T05:55:49.927Z,-0.38
2023-01-22T05:58:53.191Z,-0.37
2023-01-22T06:01:56.872Z,-0.37
2023-01-22T06:05:00.389Z,-0.37
2023-01-22T06:08:03.589Z,-0.36
2023-01-22T06:11:09.132Z,-0.38
2023-01-22T06:14:12.105Z,-0.38
2023-01-22T06:17:15.023Z,-0.38
2023-01-22T06:20:18.171Z,-0.37
2023-01-22T06:23:23.185Z,-0.38
2023-01-22T06:26:26.051Z,-0.38
2023-01-22T06:29:28.766Z,-0.37
2023-01-22T06:32:34.792Z,-0.38
2023-01-22T06:35:37.564Z,-0.36
2023-01-22T06:38:40.389Z,-0.36
2023-01-22T06:41:43.106Z,-0.35
2023-01-22T06:44:45.974Z,-0.36
2023-01-22T06:47:48.761Z,-0.36
2023-01-22T06:50:51.843Z,-0.32
2023-01-22T06:53:54.921Z,-0.33
2023-01-22T06:56:57.770Z,-0.33
2023-01-22T07:00:00.596Z,-0.32
2023-01-22T07:03:06.853Z,-0.30
2023-01-22T07:06:13.238Z,-0.30
2023-01-22T07:09:18.960Z,-0.29
2023-01-22T07:12:24.897Z,-0.30
2023-01-22T07:15:27.824Z,-0.30
2023-01-22T07:18:33.771Z,-0.31
2023-01-22T07:21:37.201Z,-0.30
2023-01-22T07:24:43.069Z,-0.30
2023-01-22T07:27:45.971Z,-0.29
2023-01-22T07:30:51.697Z,-0.23
2023-01-22T07:33:55.488Z,-0.22
2023-01-22T07:36:58.508Z,-0.07
2023-01-22T07:40:02.579Z,0.04
2023-01-22T07:43:06.826Z,0.10
2023-01-22T07:46:09.775Z,0.13
2023-01-22T07:49:13.188Z,0.29
2023-01-22T07:52:16.156Z,0.30
2023-01-22T07:55:19.234Z,0.32
2023-01-22T07:58:22.387Z,0.31
2023-01-22T08:01:25.270Z,0.28
2023-01-22T08:04:31.422Z,0.23
2023-01-22T08:07:34.419Z,0.22
2023-01-22T08:10:38.679Z,0.25
2023-01-22T08:13:41.623Z,0.25
2023-01-22T08:16:45.323Z,0.22
2023-01-22T08:19:48.335Z,0.29
2023-01-22T08:22:51.294Z,0.39
2023-01-22T08:25:54.218Z,0.40
2023-01-22T08:28:57.196Z,0.37
2023-01-22T08:32:03.483Z,0.41
2023-01-22T08:35:06.852Z,0.45
2023-01-22T08:38:09.859Z,0.36
2023-01-22T08:41:12.743Z,0.40
2023-01-22T08:44:15.700Z,0.45
2023-01-22T08:47:18.623Z,0.46
2023-01-22T08:50:23.576Z,0.46
2023-01-22T08:53:26.796Z,0.51
2023-01-22T08:56:29.854Z,0.56
2023-01-22T08:59:32.915Z,0.65
2023-01-22T09:02:36.140Z,0.73
2023-01-22T09:05:52.567Z,0.74
2023-01-22T09:08:55.710Z,0.75
2023-01-22T09:11:58.656Z,0.81
2023-01-22T09:15:01.732Z,0.81
2023-01-22T09:18:04.639Z,0.79
2023-01-22T09:21:08.684Z,0.76
2023-01-22T09:24:14.834Z,0.76
2023-01-22T09:27:19.450Z,0.89
2023-01-22T09:30:22.592Z,0.86
2023-01-22T09:33:25.817Z,0.99
2023-01-22T09:36:28.912Z,0.94
2023-01-22T09:39:32.112Z,1.01
2023-01-22T09:42:38.350Z,1.03
2023-01-22T09:45:41.957Z,1.05
2023-01-22T09:48:47.852Z,1.12
2023-01-22T09:51:56.939Z,1.11
2023-01-22T09:54:59.968Z,1.12
2023-01-22T09:58:05.983Z,1.10
2023-01-22T10:01:10.210Z,1.11
2023-01-22T10:04:42.609Z,1.16
2023-01-22T10:08:02.332Z,1.11
2023-01-22T10:11:07.896Z,1.02
2023-01-22T10:14:15.282Z,1.08
2023-01-22T10:17:30.866Z,1.06
2023-01-22T10:20:36.072Z,0.99
2023-01-22T10:23:39.122Z,1.02
2023-01-22T10:26:47.438Z,0.99
2023-01-22T10:30:00.103Z,1.03
2023-01-22T10:33:05.626Z,0.98
2023-01-22T10:36:12.936Z,0.95
2023-01-22T10:39:17.156Z,1.05
2023-01-22T10:42:23.467Z,1.02
2023-01-22T10:45:26.435Z,1.16
2023-01-22T10:48:29.500Z,1.23
2023-01-22T10:51:41.914Z,1.16
2023-01-22T10:54:52.983Z,1.18
2023-01-22T10:58:05.960Z,1.15
2023-01-22T11:01:32.445Z,1.27
2023-01-22T11:04:35.584Z,1.18
2023-01-22T11:07:39.131Z,1.22
2023-01-22T11:11:16.063Z,1.36
2023-01-22T11:14:38.020Z,1.37
2023-01-22T11:17:49.716Z,1.35
2023-01-22T11:20:56.188Z,1.25
2023-01-22T11:24:16.393Z,1.30
2023-01-22T11:27:43.335Z,1.24
2023-01-22T11:31:03.172Z,1.21
2023-01-22T11:34:09.083Z,1.15
2023-01-22T11:37:21.026Z,1.13
2023-01-22T11:40:33.250Z,1.09
2023-01-22T11:44:13.428Z,1.18
2023-01-22T11:47:48.998Z,1.21
2023-01-22T11:51:20.254Z,1.27
2023-01-22T11:54:54.478Z,1.46
2023-01-22T11:58:08.133Z,1.56
2023-01-22T12:01:43.090Z,1.57
2023-01-22T12:05:09.083Z,1.56
2023-01-22T12:08:50.865Z,1.34
2023-01-22T12:11:53.946Z,1.30
2023-01-22T12:15:42.533Z,1.11
2023-01-22T12:18:52.883Z,1.02
2023-01-22T12:22:29.873Z,1.03
2023-01-22T12:25:37.245Z,0.96
2023-01-22T12:28:50.822Z,0.94
2023-01-22T12:32:20.582Z,0.94
2023-01-22T12:35:26.436Z,0.87
2023-01-22T12:38:48.576Z,0.85
2023-01-22T12:42:02.462Z,0.85
2023-01-22T12:46:17.681Z,0.86
2023-01-22T12:49:28.698Z,0.86
2023-01-22T12:52:33.343Z,0.87
2023-01-22T12:55:38.497Z,0.92
2023-01-22T12:58:42.937Z,0.99
2023-01-22T13:01:46.353Z,1.01
2023-01-22T13:04:50.699Z,1.07
2023-01-22T13:08:19.290Z,1.17
2023-01-22T13:11:40.385Z,1.15
2023-01-22T13:14:50.448Z,1.26
2023-01-22T13:18:07.288Z,1.30
2023-01-22T13:21:15.916Z,1.29
2023-01-22T13:24:22.135Z,1.23
2023-01-22T13:27:29.047Z,1.17
2023-01-22T13:30:38.009Z,1.17
2023-01-22T13:34:00.064Z,1.12
2023-01-22T13:37:06.038Z,1.13
2023-01-22T13:40:22.976Z,1.01
2023-01-22T13:43:27.390Z,1.10
2023-01-22T13:46:30.482Z,1.05
2023-01-22T13:49:36.016Z,0.98
2023-01-22T13:52:38.868Z,0.95
2023-01-22T13:55:42.059Z,0.91
2023-01-22T13:58:48.327Z,0.90
2023-01-22T14:01:52.005Z,0.89
2023-01-22T14:04:55.326Z,0.86
2023-01-22T14:08:12.368Z,0.84
2023-01-22T14:11:15.350Z,0.82
2023-01-22T14:14:20.057Z,0.80
2023-01-22T14:17:29.128Z,0.83
2023-01-22T14:20:35.734Z,0.84
2023-01-22T14:23:43.036Z,0.81
2023-01-22T14:26:46.105Z,0.84
2023-01-22T14:29:53.469Z,0.80
2023-01-22T14:32:56.668Z,0.76
2023-01-22T14:36:00.269Z,0.76
2023-01-22T14:39:05.761Z,0.77
2023-01-22T14:42:09.516Z,0.74
2023-01-22T14:45:13.948Z,0.76
2023-01-22T14:48:19.633Z,0.74
2023-01-22T14:51:22.844Z,0.65
2023-01-22T14:54:25.746Z,0.63
2023-01-22T14:57:30.031Z,0.62
2023-01-22T15:00:35.725Z,0.59
2023-01-22T15:03:38.736Z,0.57
2023-01-22T15:06:41.702Z,0.54
2023-01-22T15:09:44.939Z,0.53
2023-01-22T15:12:49.480Z,0.54
2023-01-22T15:15:52.588Z,0.53
2023-01-22T15:18:56.747Z,0.52
2023-01-22T15:21:59.511Z,0.49
2023-01-22T15:25:02.553Z,0.48
2023-01-22T15:28:08.702Z,0.47
2023-01-22T15:31:24.275Z,0.47
2023-01-22T15:34:27.738Z,0.45
2023-01-22T15:37:31.039Z,0.46
2023-01-22T15:40:38.870Z,0.43
2023-01-22T15:43:41.740Z,0.41
2023-01-22T15:46:45.104Z,0.45
2023-01-22T15:49:48.411Z,0.43
2023-01-22T15:52:55.762Z,0.42
2023-01-22T15:55:58.918Z,0.41
2023-01-22T15:59:02.474Z,0.40
2023-01-22T16:02:05.585Z,0.39
2023-01-22T16:05:09.037Z,0.40
2023-01-22T16:08:12.203Z,0.42
2023-01-22T16:11:15.912Z,0.40
2023-01-22T16:14:20.178Z,0.38
2023-01-22T16:17:23.286Z,0.37
2023-01-22T16:20:26.754Z,0.37
2023-01-22T16:23:31.334Z,0.29
2023-01-22T16:26:35.580Z,0.35
2023-01-22T16:29:40.275Z,0.36
2023-01-22T16:32:46.392Z,0.34
2023-01-22T16:35:49.621Z,0.36
2023-01-22T16:38:52.864Z,0.34
2023-01-22T16:41:57.102Z,0.35
2023-01-22T16:45:00.274Z,0.35
2023-01-22T16:48:03.212Z,0.35
2023-01-22T16:51:06.517Z,0.31
2023-01-22T16:54:21.955Z,0.33
2023-01-22T16:57:25.091Z,0.35
2023-01-22T17:00:29.442Z,0.32
2023-01-22T17:03:33.109Z,0.33
2023-01-22T17:06:44.601Z,0.33
2023-01-22T17:09:47.915Z,0.33
2023-01-22T17:12:51.175Z,0.30
2023-01-22T17:15:54.312Z,0.29
2023-01-22T17:18:59.320Z,0.29
2023-01-22T17:22:03.546Z,0.29
2023-01-22T17:25:06.890Z,0.28
2023-01-22T17:28:10.031Z,0.29
2023-01-22T17:31:16.078Z,0.28
2023-01-22T17:34:20.519Z,0.30
2023-01-22T17:37:23.710Z,0.29
2023-01-22T17:40:27.179Z,0.29
2023-01-22T17:43:30.562Z,0.28
2023-01-22T17:46:35.872Z,0.29
2023-01-22T17:49:39.301Z,0.29
2023-01-22T17:52:47.747Z,0.29
2023-01-22T17:55:50.944Z,0.31
2023-01-22T17:58:56.867Z,0.30
2023-01-22T18:02:01.113Z,0.30
2023-01-22T18:05:04.613Z,0.30
2023-01-22T18:08:07.790Z,0.30
2023-01-22T18:11:16.650Z,0.31
2023-01-22T18:14:23.091Z,0.31
2023-01-22T18:17:26.076Z,0.31
2023-01-22T18:20:32.431Z,0.30
2023-01-22T18:23:35.813Z,0.30
2023-01-22T18:26:39.249Z,0.30
2023-01-22T18:29:42.424Z,0.28
2023-01-22T18:32:45.771Z,0.29
2023-01-22T18:35:53.320Z,0.29
2023-01-22T18:39:02.886Z,0.30
2023-01-22T18:42:06.060Z,0.30
2023-01-22T18:45:10.968Z,0.30
2023-01-22T18:48:16.001Z,0.30
2023-01-22T18:51:19.615Z,0.32
2023-01-22T18:54:23.022Z,0.31
2023-01-22T18:57:30.251Z,0.31
2023-01-22T19:00:34.178Z,0.29
2023-01-22T19:03:37.767Z,0.30
2023-01-22T19:06:41.024Z,0.28
2023-01-22T19:09:44.206Z,0.27
2023-01-22T19:12:47.342Z,0.27
2023-01-22T19:15:50.715Z,0.28
2023-01-22T19:18:56.185Z,0.29
2023-01-22T19:21:59.620Z,0.30
2023-01-22T19:25:03.213Z,0.31
2023-01-22T19:28:06.451Z,0.32
2023-01-22T19:31:25.034Z,0.31
2023-01-22T19:34:31.484Z,0.32
2023-01-22T19:37:35.698Z,0.31
2023-01-22T19:40:44.770Z,0.30
2023-01-22T19:43:48.351Z,0.30
2023-01-22T19:46:51.657Z,0.31
2023-01-22T19:49:55.251Z,0.33
2023-01-22T19:52:58.946Z,0.32
2023-01-22T19:56:02.472Z,0.32
2023-01-22T19:59:13.341Z,0.33
2023-01-22T20:02:17.225Z,0.36
2023-01-22T20:05:24.814Z,0.36
2023-01-22T20:08:28.053Z,0.38
2023-01-22T20:11:31.937Z,0.40
2023-01-22T20:14:43.645Z,0.41
2023-01-22T20:17:46.827Z,0.43
2023-01-22T20:20:57.969Z,0.43
2023-01-22T20:24:01.862Z,0.46
2023-01-22T20:27:05.730Z,0.47
2023-01-22T20:30:09.690Z,0.46
2023-01-22T20:33:13.113Z,0.49
2023-01-22T20:36:16.010Z,0.47
2023-01-22T20:39:20.021Z,0.47
2023-01-22T20:42:23.291Z,0.48
2023-01-22T20:45:26.417Z,0.45
2023-01-22T20:48:31.204Z,0.43
2023-01-22T20:51:34.634Z,0.43
2023-01-22T20:54:50.087Z,0.42
2023-01-22T20:58:02.219Z,0.41
2023-01-22T21:01:12.028Z,0.39
2023-01-22T21:04:16.373Z,0.39
2023-01-22T21:07:20.123Z,0.38
2023-01-22T21:10:23.948Z,0.37
2023-01-22T21:13:27.481Z,0.38
2023-01-22T21:16:33.108Z,0.39
2023-01-22T21:19:36.330Z,0.42
2023-01-22T21:22:42.156Z,0.41
2023-01-22T21:25:45.335Z,0.42
2023-01-22T21:28:49.619Z,0.41
2023-01-22T21:31:54.403Z,0.42
2023-01-22T21:34:57.795Z,0.45
2023-01-22T21:38:00.735Z,0.49
2023-01-22T21:41:12.531Z,0.52
2023-01-22T21:44:38.021Z,0.57
2023-01-22T21:47:40.894Z,0.56
2023-01-22T21:50:44.117Z,0.54
2023-01-22T21:53:47.289Z,0.55
2023-01-22T21:56:50.277Z,0.58
2023-01-22T21:59:53.388Z,0.60
2023-01-22T22:02:56.484Z,0.61
2023-01-22T22:06:02.403Z,0.61
2023-01-22T22:09:13.053Z,0.62
2023-01-22T22:12:15.929Z,0.62
2023-01-22T22:15:19.110Z,0.62
2023-01-22T22:18:22.026Z,0.62
2023-01-22T22:21:25.004Z,0.63
2023-01-22T22:24:29.272Z,0.63
2023-01-22T22:27:32.201Z,0.63
2023-01-22T22:30:35.244Z,0.60
2023-01-22T22:33:43.528Z,0.59
2023-01-22T22:36:46.445Z,0.60
2023-01-22T22:39:49.361Z,0.60
2023-01-22T22:42:52.513Z,0.58
2023-01-22T22:45:55.336Z,0.59
2023-01-22T22:49:00.555Z,0.56
2023-01-22T22:52:06.230Z,0.53
2023-01-22T22:55:09.668Z,0.44
2023-01-22T22:58:13.593Z,0.46
2023-01-22T23:01:19.614Z,0.45
2023-01-22T23:04:22.605Z,0.45
2023-01-22T23:07:25.487Z,0.43
2023-01-22T23:10:29.624Z,0.41
2023-01-22T23:13:32.880Z,0.42
2023-01-22T23:16:38.204Z,0.42
2023-01-22T23:19:41.210Z,0.41
2023-01-22T23:22:45.534Z,0.39
2023-01-22T23:25:48.654Z,0.38
2023-01-22T23:28:52.376Z,0.38
2023-01-22T23:31:56.317Z,0.38
2023-01-22T23:34:59.355Z,0.36
2023-01-22T23:38:02.260Z,0.37
2023-01-22T23:41:08.262Z,0.36
2023-01-22T23:44:11.953Z,0.36
2023-01-22T23:47:14.727Z,0.36
2023-01-22T23:50:18.368Z,0.36
2023-01-22T23:53:22.305Z,0.36
2023-01-22T23:56:32.483Z,0.38
2023-01-22T23:59:35.288Z,0.40
